Time;durP1;ratioP1;P1;durP2;ratioP2;P2;SDS_P1;SDS_P2;PMS_P1;PMS_P2;Temp;Humidity;BMP_temperature;BMP_pressure;BME280_temperature;BME280_humidity;BME280_pressure;Samples;Min_cycle;Max_cycle;Signal;HPM_P1;HPM_P2
2021/09/03 00:03:46;;;;;;;12.05;11.05;;;;;;;13.44;89.46;100861.22;10461431;28;20467;-72
2021/09/03 00:08:48;;;;;;;12.10;11.25;;;;;;;13.32;90.03;100862.44;10461229;28;20463;-70
2021/09/03 00:13:50;;;;;;;11.20;10.30;;;;;;;13.28;90.35;100860.81;10460081;28;20041;-70
2021/09/03 00:18:51;;;;;;;13.32;12.23;;;;;;;13.26;90.65;100854.72;10459339;28;20131;-71
2021/09/03 00:23:53;;;;;;;12.48;11.65;;;;;;;13.50;88.83;100847.81;10460012;28;20107;-72
2021/09/03 00:28:54;;;;;;;12.05;11.05;;;;;;;13.32;89.88;100849.25;10459753;28;20576;-71
2021/09/03 00:33:56;;;;;;;13.02;12.02;;;;;;;13.29;89.81;100842.31;10459844;28;20100;-70
2021/09/03 00:38:57;;;;;;;11.25;10.48;;;;;;;12.96;90.20;100835.34;10442049;28;20049;-71
2021/09/03 00:43:59;;;;;;;11.32;10.52;;;;;;;12.80;91.32;100838.41;10459021;28;20041;-71
2021/09/03 00:49:01;;;;;;;11.45;10.55;;;;;;;12.80;91.72;100832.28;10459059;28;20049;-71
2021/09/03 00:54:02;;;;;;;12.68;11.45;;;;;;;12.76;91.05;100826.22;10459271;28;20052;-71
2021/09/03 00:59:04;;;;;;;11.55;10.75;;;;;;;12.75;90.76;100827.13;10440904;28;20056;-71
2021/09/03 01:04:05;;;;;;;10.55;9.73;;;;;;;12.68;90.57;100824.72;10458204;28;20170;-71
2021/09/03 01:09:07;;;;;;;10.05;9.40;;;;;;;12.60;90.63;100823.13;10457911;28;20079;-71
2021/09/03 01:14:09;;;;;;;10.95;10.05;;;;;;;12.68;90.14;100815.00;10458174;28;20387;-71
2021/09/03 01:19:10;;;;;;;10.95;10.13;;;;;;;12.55;90.48;100813.63;10440601;28;20498;-71
2021/09/03 01:24:12;;;;;;;10.23;9.52;;;;;;;12.38;90.77;100807.03;10458458;28;20517;-71
2021/09/03 01:29:14;;;;;;;11.77;10.85;;;;;;;12.49;90.25;100808.53;10439352;28;20045;-71
2021/09/03 01:34:15;;;;;;;11.23;10.32;;;;;;;12.45;90.18;100815.66;10457713;28;20482;-71
2021/09/03 01:39:17;;;;;;;10.50;9.80;;;;;;;12.33;91.01;100813.34;10457585;28;20103;-71
2021/09/03 01:44:19;;;;;;;11.52;10.52;;;;;;;12.22;90.90;100813.63;10458813;28;20418;-71
2021/09/03 01:49:21;;;;;;;11.68;10.45;;;;;;;12.26;90.56;100806.47;10446745;28;20107;-72
2021/09/03 01:54:23;;;;;;;10.95;10.20;;;;;;;12.21;90.47;100811.88;10439703;28;20095;-71
2021/09/03 01:59:24;;;;;;;11.32;10.43;;;;;;;12.21;90.43;100798.69;10457067;28;20073;-71
2021/09/03 02:04:26;;;;;;;11.43;10.50;;;;;;;12.58;88.67;100792.44;10456914;28;20099;-71
2021/09/03 02:09:27;;;;;;;11.63;10.70;;;;;;;12.55;88.62;100796.03;10456376;28;20045;-71
2021/09/03 02:14:29;;;;;;;12.30;11.30;;;;;;;12.06;90.36;100786.81;10455648;28;20037;-71
2021/09/03 02:19:30;;;;;;;12.38;11.57;;;;;;;11.89;91.74;100781.09;10456414;28;20057;-71
2021/09/03 02:24:32;;;;;;;12.48;11.57;;;;;;;11.90;92.14;100772.28;10457014;28;20095;-71
2021/09/03 02:29:33;;;;;;;13.90;12.27;;;;;;;11.97;91.48;100779.13;10455809;28;20047;-71
2021/09/03 02:34:35;;;;;;;12.68;11.68;;;;;;;11.98;91.67;100772.94;10455260;28;20071;-71
2021/09/03 02:39:36;;;;;;;13.63;12.23;;;;;;;12.20;90.35;100773.25;10457130;28;20164;-71
2021/09/03 02:44:38;;;;;;;14.85;13.43;;;;;;;11.95;90.93;100767.75;10443140;28;20052;-71
2021/09/03 02:49:40;;;;;;;15.35;13.80;;;;;;;11.70;91.67;100778.03;10463939;28;20044;-71
2021/09/03 02:54:41;;;;;;;13.68;12.63;;;;;;;11.80;91.59;100768.13;10463850;28;20037;-71
2021/09/03 02:59:43;;;;;;;13.45;12.35;;;;;;;11.82;91.64;100766.28;10464207;28;20049;-71
2021/09/03 03:04:45;;;;;;;13.85;12.85;;;;;;;11.86;91.02;100757.44;10463097;28;20479;-70
2021/09/03 03:09:46;;;;;;;13.43;12.23;;;;;;;11.69;91.31;100752.59;10462924;28;20465;-70
2021/09/03 03:14:48;;;;;;;14.25;12.98;;;;;;;11.58;91.83;100752.84;10462923;28;20045;-70
2021/09/03 03:19:49;;;;;;;14.23;12.90;;;;;;;11.73;90.93;100740.19;10462762;28;20126;-70
2021/09/03 03:24:51;;;;;;;14.05;12.98;;;;;;;11.58;90.77;100742.31;10444710;28;20041;-70
2021/09/03 03:29:53;;;;;;;13.38;12.27;;;;;;;11.40;91.88;100741.91;10462109;28;20049;-70
2021/09/03 03:34:54;;;;;;;13.52;12.48;;;;;;;11.30;92.24;100743.88;10461501;28;20087;-70
2021/09/03 03:39:56;;;;;;;13.85;12.75;;;;;;;11.27;92.74;100730.78;10461568;28;20433;-70
2021/09/03 03:44:57;;;;;;;13.52;12.18;;;;;;;11.39;92.12;100724.38;10461750;28;20203;-70
2021/09/03 03:50:00;;;;;;;14.23;13.07;;;;;;;11.43;91.72;100724.28;10461369;28;20045;-70
2021/09/03 03:55:02;;;;;;;13.10;12.10;;;;;;;11.34;91.21;100720.09;10459960;28;20060;-70
2021/09/03 04:00:05;;;;;;;13.50;12.45;;;;;;;11.39;91.23;100725.25;10461534;28;20103;-70
2021/09/03 04:05:08;;;;;;;14.95;13.70;;;;;;;11.55;90.01;100715.19;10462521;28;20033;-70
2021/09/03 04:10:09;;;;;;;14.25;13.15;;;;;;;11.34;90.27;100714.81;10461002;28;20380;-70
2021/09/03 04:15:11;;;;;;;14.88;13.68;;;;;;;11.08;91.31;100715.44;10460817;28;20045;-72
2021/09/03 04:20:13;;;;;;;15.30;13.88;;;;;;;11.02;91.95;100720.84;10460386;28;20044;-71
2021/09/03 04:25:14;;;;;;;13.85;12.93;;;;;;;11.01;92.19;100721.72;10461832;28;20045;-70
2021/09/03 04:30:16;;;;;;;12.75;11.75;;;;;;;11.01;91.78;100719.09;10461985;28;20453;-70
2021/09/03 04:35:18;;;;;;;13.65;12.50;;;;;;;11.08;91.72;100715.44;10442963;28;20037;-71
2021/09/03 04:40:20;;;;;;;17.85;12.95;;;;;;;11.30;91.47;100710.53;10461255;28;20449;-70
2021/09/03 04:45:22;;;;;;;14.77;13.55;;;;;;;11.39;90.69;100708.59;10460589;28;20099;-70
2021/09/03 04:50:23;;;;;;;15.90;14.60;;;;;;;11.14;92.09;100703.91;10443206;28;20111;-70
2021/09/03 04:55:25;;;;;;;15.32;14.00;;;;;;;11.07;92.81;100708.44;10461442;28;20045;-71
2021/09/03 05:00:27;;;;;;;13.73;12.75;;;;;;;11.15;93.02;100728.44;10461672;28;20045;-71
2021/09/03 05:05:28;;;;;;;13.30;12.25;;;;;;;11.20;92.91;100723.94;10425579;28;20049;-70
2021/09/03 05:10:30;;;;;;;14.40;13.15;;;;;;;11.33;92.76;100715.75;10459764;28;20555;-71
2021/09/03 05:15:36;;;;;;;15.13;13.70;;;;;;;11.44;92.58;100706.69;10458979;28;20068;-71
2021/09/03 05:20:38;;;;;;;15.43;13.82;;;;;;;11.58;92.57;100715.97;10458155;28;20052;-71
2021/09/03 05:25:39;;;;;;;14.65;13.25;;;;;;;11.59;93.76;100715.06;10457769;28;20045;-71
2021/09/03 05:30:41;;;;;;;14.00;12.80;;;;;;;11.77;93.60;100715.50;10457527;28;20123;-71
2021/09/03 05:35:43;;;;;;;13.90;12.88;;;;;;;11.92;92.88;100702.00;10475943;23;20087;-73
2021/09/03 05:40:45;;;;;;;12.25;11.25;;;;;;;12.25;92.00;100699.31;10508553;28;20127;-73
2021/09/03 05:45:47;;;;;;;13.00;12.02;;;;;;;12.23;91.03;100699.38;10491095;28;20096;-73
2021/09/03 05:50:50;;;;;;;16.70;12.35;;;;;;;12.43;89.96;100698.78;10512983;28;20127;-71
2021/09/03 05:55:51;;;;;;;13.82;12.70;;;;;;;12.45;89.46;100697.00;10513066;28;20119;-74
2021/09/03 06:00:54;;;;;;;13.38;12.25;;;;;;;12.50;89.85;100681.91;10493502;28;20071;-73
2021/09/03 06:05:56;;;;;;;10.45;9.55;;;;;;;13.70;84.59;100684.28;10490004;28;20040;-73
2021/09/03 06:10:58;;;;;;;9.82;8.93;;;;;;;14.61;78.73;100684.56;10490200;28;20054;-73
2021/09/03 06:16:00;;;;;;;9.02;8.25;;;;;;;14.63;78.84;100688.00;10490776;28;20040;-74
2021/09/03 06:21:02;;;;;;;11.13;8.45;;;;;;;14.57;79.69;100682.94;10511863;28;20048;-75
2021/09/03 06:26:04;;;;;;;10.32;9.52;;;;;;;14.81;77.92;100671.41;10492589;28;20071;-75
2021/09/03 06:31:06;;;;;;;9.98;9.18;;;;;;;14.51;79.42;100678.72;10507436;28;20048;-74
2021/09/03 06:36:08;;;;;;;8.77;8.10;;;;;;;14.55;80.39;100675.06;10488556;28;20107;-74
2021/09/03 06:41:10;;;;;;;10.02;9.15;;;;;;;14.61;79.04;100666.91;10507265;28;20037;-74
2021/09/03 06:46:12;;;;;;;11.02;10.23;;;;;;;14.36;81.92;100668.69;10473497;28;20049;-73
2021/09/03 06:51:13;;;;;;;11.23;10.27;;;;;;;14.61;78.75;100664.25;10510041;28;20079;-75
2021/09/03 06:56:16;;;;;;;11.70;10.88;;;;;;;14.36;82.55;100661.63;10489653;28;20036;-73
2021/09/03 07:01:18;;;;;;;10.93;10.10;;;;;;;14.45;82.86;100657.78;10489000;28;20059;-74
2021/09/03 07:06:20;;;;;;;11.75;10.75;;;;;;;14.47;82.45;100663.00;10491112;28;20051;-74
2021/09/03 07:11:23;;;;;;;11.43;10.63;;;;;;;14.55;81.97;100656.53;10510454;28;20490;-74
2021/09/03 07:16:26;;;;;;;12.30;11.30;;;;;;;14.71;82.23;100656.81;10503951;28;20035;-74
2021/09/03 07:21:30;;;;;;;12.10;10.95;;;;;;;14.83;81.98;100639.56;10521043;28;20044;-76
2021/09/03 07:26:32;;;;;;;12.30;10.15;;;;;;;14.91;80.96;100640.13;10488699;28;20045;-74
2021/09/03 07:31:34;;;;;;;11.57;10.57;;;;;;;15.41;80.09;100637.22;10535393;28;20047;-74
2021/09/03 07:36:36;;;;;;;11.27;10.48;;;;;;;15.62;79.43;100630.97;10526301;28;20054;-74
2021/09/03 07:41:37;;;;;;;12.57;9.55;;;;;;;16.19;76.31;100623.19;10550962;28;20052;-74
2021/09/03 07:46:39;;;;;;;13.50;10.07;;;;;;;16.08;77.39;100618.41;10543240;28;20044;-75
2021/09/03 07:51:41;;;;;;;10.40;8.95;;;;;;;16.22;77.11;100616.91;10490952;28;20072;-75
2021/09/03 07:56:43;;;;;;;10.80;10.00;;;;;;;16.61;76.21;100603.56;10490030;28;20059;-75
2021/09/03 08:01:44;;;;;;;10.75;9.75;;;;;;;16.75;76.50;100605.59;10506296;28;20103;-75
2021/09/03 08:06:46;;;;;;;10.77;9.88;;;;;;;17.36;73.27;100606.09;10507491;28;20123;-75
2021/09/03 08:11:49;;;;;;;12.73;9.60;;;;;;;17.32;73.21;100606.31;10508085;28;20053;-74
2021/09/03 08:16:51;;;;;;;10.15;9.10;;;;;;;17.76;71.71;100613.84;10510467;28;20507;-76
2021/09/03 08:21:52;;;;;;;9.68;8.98;;;;;;;17.64;72.35;100613.50;10490422;28;20045;-75
2021/09/03 08:26:54;;;;;;;10.18;9.38;;;;;;;17.60;72.30;100606.59;10508343;28;20036;-74
2021/09/03 08:31:55;;;;;;;10.88;8.48;;;;;;;18.15;69.75;100608.19;10507531;28;20110;-75
2021/09/03 08:36:57;;;;;;;8.63;7.80;;;;;;;18.34;70.54;100598.25;10505959;28;20433;-75
2021/09/03 08:41:59;;;;;;;9.13;8.15;;;;;;;18.82;69.75;100603.63;10507334;28;20045;-75
2021/09/03 08:47:02;;;;;;;14.18;9.30;;;;;;;18.86;66.56;100600.72;10490367;28;20063;-74
2021/09/03 08:52:03;;;;;;;7.70;6.95;;;;;;;18.94;68.84;100600.25;10506345;28;20041;-74
2021/09/03 08:57:05;;;;;;;9.32;8.52;;;;;;;19.51;67.06;100602.25;10506229;28;20044;-74
2021/09/03 09:02:12;;;;;;;9.00;7.88;;;;;;;19.72;65.98;100598.31;10487968;28;20044;-73
2021/09/03 09:07:14;;;;;;;9.77;8.40;;;;;;;20.13;63.61;100586.91;10505075;28;20036;-75
2021/09/03 09:12:19;;;;;;;10.63;8.52;;;;;;;20.14;65.70;100586.81;10487181;28;20047;-73
2021/09/03 09:17:28;;;;;;;10.25;7.60;;;;;;;20.74;63.18;100568.81;10486083;28;20048;-74
2021/09/03 09:22:53;;;;;;;9.15;8.35;;;;;;;21.11;63.02;100569.88;10503638;28;20040;-76
2021/09/03 09:28:17;;;;;;;7.55;6.95;;;;;;;21.21;61.69;100572.81;10485488;28;20055;-75
2021/09/03 09:33:21;;;;;;;7.82;7.13;;;;;;;21.77;58.71;100570.75;10504900;28;20120;-73
2021/09/03 09:38:25;;;;;;;7.45;6.95;;;;;;;22.48;57.03;100556.72;10504743;28;20049;-74
2021/09/03 09:43:36;;;;;;;7.28;6.68;;;;;;;22.48;59.59;100556.72;10484609;28;20047;-74
2021/09/03 09:48:49;;;;;;;7.07;6.47;;;;;;;23.42;55.00;100547.94;10504384;28;20114;-74
2021/09/03 09:54:04;;;;;;;6.10;5.30;;;;;;;24.00;52.96;100542.53;10484872;28;20033;-74
2021/09/03 09:59:09;;;;;;;6.67;6.13;;;;;;;23.99;53.31;100541.66;10503372;28;20059;-74
2021/09/03 10:04:13;;;;;;;5.65;4.68;;;;;;;23.34;50.60;100536.94;10501416;28;20064;-74
2021/09/03 10:09:17;;;;;;;5.70;5.10;;;;;;;23.24;50.65;100541.28;10485323;28;20103;-73
2021/09/03 10:14:24;;;;;;;4.60;4.20;;;;;;;23.44;50.28;100531.72;10502725;28;20040;-75
2021/09/03 10:19:41;;;;;;;4.07;3.78;;;;;;;24.29;49.48;100522.22;10485418;28;20048;-76
2021/09/03 10:24:45;;;;;;;4.35;3.85;;;;;;;24.44;48.19;100514.78;10485126;28;20398;-76
2021/09/03 10:29:47;;;;;;;3.95;3.65;;;;;;;24.61;47.06;100505.31;10502757;28;20049;-74
2021/09/03 10:34:59;;;;;;;4.13;3.78;;;;;;;24.19;47.49;100498.94;10502019;28;20504;-75
2021/09/03 10:40:38;;;;;;;4.95;3.53;;;;;;;24.62;46.70;100494.44;10486018;28;20048;-76
2021/09/03 10:45:43;;;;;;;4.55;3.80;;;;;;;24.38;45.98;100489.25;10503877;28;20108;-76
2021/09/03 10:50:54;;;;;;;4.10;3.63;;;;;;;24.52;45.75;100473.81;10485798;28;20505;-76
2021/09/03 10:56:04;;;;;;;4.32;3.90;;;;;;;24.88;46.39;100467.19;10501533;28;20036;-75
2021/09/03 11:01:09;;;;;;;4.35;3.95;;;;;;;24.53;45.81;100470.19;10485330;28;20126;-75
2021/09/03 11:06:36;;;;;;;3.63;3.33;;;;;;;25.24;45.46;100465.09;10508730;28;20043;-75
2021/09/03 11:11:39;;;;;;;3.78;3.47;;;;;;;25.81;45.33;100466.34;10509946;28;20127;-74
2021/09/03 11:16:43;;;;;;;3.47;3.17;;;;;;;26.08;42.77;100463.91;10508188;28;20051;-75
2021/09/03 11:21:55;;;;;;;4.40;4.03;;;;;;;25.68;42.47;100458.50;10508433;28;20049;-75
2021/09/03 11:26:58;;;;;;;4.43;3.58;;;;;;;25.65;43.31;100459.63;10509038;28;20052;-75
2021/09/03 11:32:15;;;;;;;5.47;4.35;;;;;;;24.94;45.29;100450.56;10507420;28;20079;-76
2021/09/03 11:37:22;;;;;;;5.03;4.22;;;;;;;25.33;45.52;100450.84;10488094;22;20077;-69
2021/09/03 11:42:28;;;;;;;4.47;4.18;;;;;;;25.38;43.49;100453.97;10462540;28;20048;-70
2021/09/03 11:47:39;;;;;;;3.80;3.50;;;;;;;25.40;42.55;100451.97;10462316;28;20037;-70
2021/09/03 11:52:43;;;;;;;4.13;3.25;;;;;;;25.27;41.08;100444.13;10461739;28;20093;-69
2021/09/03 11:58:00;;;;;;;4.13;3.83;;;;;;;24.80;42.83;100445.50;10462016;28;20045;-70
2021/09/03 12:03:05;;;;;;;3.45;3.15;;;;;;;25.07;42.13;100428.84;10460385;28;20055;-70
2021/09/03 12:08:13;;;;;;;3.90;3.50;;;;;;;25.51;41.78;100433.06;10460840;28;20048;-69
2021/09/03 12:13:29;;;;;;;3.95;3.33;;;;;;;25.73;39.45;100428.47;10460969;28;20044;-69
2021/09/03 12:18:36;;;;;;;3.55;3.25;;;;;;;25.39;40.58;100429.59;10458306;28;20049;-70
2021/09/03 12:23:47;;;;;;;3.50;3.08;;;;;;;25.15;41.93;100421.84;10460650;28;20114;-70
2021/09/03 12:28:52;;;;;;;3.45;3.15;;;;;;;24.98;43.75;100411.66;10461115;28;20052;-69
2021/09/03 12:33:59;;;;;;;6.13;3.10;;;;;;;24.92;42.33;100413.03;10460743;28;20513;-70
2021/09/03 12:39:05;;;;;;;3.53;3.00;;;;;;;24.72;45.14;100415.72;10459991;28;20045;-69
2021/09/03 12:44:11;;;;;;;;;;;;;;;24.53;43.86;100414.59;10461006;28;20041;-70
2021/09/03 12:49:12;;;;;;;4.95;3.50;;;;;;;24.44;44.88;100404.63;10460211;28;19921;-69
2021/09/03 12:54:15;;;;;;;3.63;3.20;;;;;;;24.39;44.19;100404.13;10459404;28;20091;-68
2021/09/03 12:59:19;;;;;;;3.70;3.40;;;;;;;24.29;44.76;100395.09;10460036;28;20378;-68
2021/09/03 13:04:23;;;;;;;2.97;2.58;;;;;;;24.23;44.86;100396.47;10459480;28;20041;-68
2021/09/03 13:09:29;;;;;;;3.40;3.13;;;;;;;24.22;44.12;100388.56;10459552;28;20048;-68
2021/09/03 13:14:31;;;;;;;3.72;3.42;;;;;;;24.09;45.04;100392.25;10458497;28;20045;-68
2021/09/03 13:19:33;;;;;;;4.45;4.00;;;;;;;24.11;44.22;100373.31;10458440;28;20049;-69
2021/09/03 13:24:35;;;;;;;4.05;3.38;;;;;;;24.15;44.46;100364.88;10458057;28;20053;-69
2021/09/03 13:29:37;;;;;;;3.22;3.03;;;;;;;24.31;44.96;100360.91;10456850;28;20494;-69
2021/09/03 13:34:39;;;;;;;3.97;3.60;;;;;;;23.95;45.85;100360.31;10457637;28;20037;-69
2021/09/03 13:39:41;;;;;;;3.67;3.38;;;;;;;23.98;45.67;100357.34;10456976;28;20561;-69
2021/09/03 13:44:44;;;;;;;4.22;3.28;;;;;;;24.06;45.34;100346.84;10457223;28;20524;-69
2021/09/03 13:49:46;;;;;;;4.45;3.60;;;;;;;24.06;45.62;100351.34;10456137;28;20049;-69
2021/09/03 13:54:47;;;;;;;5.55;3.47;;;;;;;24.00;45.53;100347.38;10457372;28;20071;-69
2021/09/03 13:59:49;;;;;;;4.10;3.80;;;;;;;23.62;47.94;100337.03;10456734;28;20045;-69
2021/09/03 14:04:51;;;;;;;4.30;3.92;;;;;;;23.70;48.52;100328.41;10457204;28;20049;-68
2021/09/03 14:09:52;;;;;;;4.35;3.95;;;;;;;23.45;47.59;100332.19;10456575;28;20041;-69
2021/09/03 14:14:54;;;;;;;5.15;4.40;;;;;;;23.35;47.36;100324.03;10456343;28;20375;-70
2021/09/03 14:19:56;;;;;;;4.47;4.07;;;;;;;23.39;48.21;100325.50;10456723;28;20052;-70
2021/09/03 14:24:58;;;;;;;10.02;4.63;;;;;;;23.24;48.32;100319.56;10456487;28;20045;-70
2021/09/03 14:30:00;;;;;;;4.40;4.10;;;;;;;23.31;48.01;100309.16;10456769;28;20493;-70
2021/09/03 14:35:02;;;;;;;3.92;3.63;;;;;;;23.57;45.89;100304.38;10456051;28;20044;-71
2021/09/03 14:40:06;;;;;;;4.05;3.72;;;;;;;23.39;46.58;100304.88;10464093;28;20102;-70
2021/09/03 14:45:09;;;;;;;4.22;3.90;;;;;;;23.51;46.17;100304.88;10468465;28;20135;-70
2021/09/03 14:50:11;;;;;;;4.75;4.35;;;;;;;23.36;47.16;100302.44;10470012;28;20044;-70
2021/09/03 14:55:12;;;;;;;4.85;4.45;;;;;;;23.21;47.92;100286.75;10469540;28;20071;-70
2021/09/03 15:00:14;;;;;;;4.22;3.83;;;;;;;22.97;48.25;100284.19;10469537;28;20036;-70
2021/09/03 15:05:16;;;;;;;4.07;3.78;;;;;;;23.17;48.27;100278.94;10468923;28;20098;-69
2021/09/03 15:10:18;;;;;;;5.03;4.63;;;;;;;22.80;48.56;100266.72;10468513;28;20049;-68
2021/09/03 15:15:21;;;;;;;4.72;4.32;;;;;;;22.99;48.34;100277.75;10466653;28;20406;-69
2021/09/03 15:20:23;;;;;;;5.22;4.72;;;;;;;22.70;49.45;100269.28;10468392;28;20057;-69
2021/09/03 15:25:25;;;;;;;4.65;4.25;;;;;;;22.77;49.78;100267.00;10469322;28;20128;-69
2021/09/03 15:30:38;;;;;;;4.50;4.10;;;;;;;22.77;49.13;100267.84;10470975;28;20064;-70
2021/09/03 15:35:43;;;;;;;4.90;4.45;;;;;;;22.61;50.18;100273.53;10469873;28;20041;-70
2021/09/03 15:40:47;;;;;;;5.07;4.67;;;;;;;22.69;49.60;100264.06;10470716;28;20041;-69
2021/09/03 15:45:49;;;;;;;5.35;4.95;;;;;;;22.37;52.25;100260.22;10469556;28;20052;-69
2021/09/03 15:50:51;;;;;;;5.82;5.28;;;;;;;22.34;51.52;100257.78;10465087;28;20044;-70
2021/09/03 15:55:55;;;;;;;7.10;6.53;;;;;;;22.22;52.54;100253.38;10462947;28;20041;-70
2021/09/03 16:01:02;;;;;;;6.00;5.53;;;;;;;22.31;51.36;100246.44;10462694;28;20118;-70
2021/09/03 16:06:04;;;;;;;5.82;5.43;;;;;;;22.32;51.83;100240.16;10463044;28;20037;-70
2021/09/03 16:11:08;;;;;;;7.63;5.82;;;;;;;22.10;52.49;100236.41;10463154;28;20057;-69
2021/09/03 16:16:09;;;;;;;6.82;6.22;;;;;;;22.01;52.99;100233.59;10460813;28;20048;-70
2021/09/03 16:21:11;;;;;;;9.13;7.93;;;;;;;21.83;53.26;100222.47;10461443;28;20441;-68
2021/09/03 16:26:14;;;;;;;7.53;6.95;;;;;;;21.98;52.51;100226.63;10460780;28;20479;-70
2021/09/03 16:31:16;;;;;;;6.90;6.30;;;;;;;21.59;54.12;100223.31;10466914;28;20490;-70
2021/09/03 16:36:18;;;;;;;9.02;8.32;;;;;;;21.54;54.31;100224.63;10460468;28;20057;-69
2021/09/03 16:41:19;;;;;;;7.10;6.50;;;;;;;21.48;54.67;100219.75;10463893;28;20056;-68
2021/09/03 16:46:23;;;;;;;6.65;6.18;;;;;;;21.41;54.60;100219.31;10460834;28;20045;-69
2021/09/03 16:51:25;;;;;;;8.95;8.35;;;;;;;21.34;54.86;100218.94;10460816;28;20441;-69
2021/09/03 16:56:26;;;;;;;14.85;13.82;;;;;;;21.28;54.71;100219.34;10460628;28;20095;-70
2021/09/03 17:01:29;;;;;;;10.55;9.70;;;;;;;21.26;54.84;100221.28;10441464;28;20040;-69
2021/09/03 17:06:31;;;;;;;7.63;7.13;;;;;;;20.92;55.92;100226.41;10458393;28;20052;-69
2021/09/03 17:11:32;;;;;;;9.52;8.70;;;;;;;20.70;57.34;100212.84;10458627;28;20104;-69
2021/09/03 17:16:34;;;;;;;9.48;8.77;;;;;;;20.52;57.72;100220.34;10458802;28;20052;-69
2021/09/03 17:21:36;;;;;;;8.70;8.10;;;;;;;20.39;58.52;100216.81;10457567;28;20479;-70
2021/09/03 17:26:38;;;;;;;8.20;7.63;;;;;;;20.32;58.98;100226.19;10458335;28;20075;-69
2021/09/03 17:31:39;;;;;;;7.10;6.60;;;;;;;20.13;60.22;100221.25;10458424;28;20053;-68
2021/09/03 17:36:41;;;;;;;6.75;6.25;;;;;;;19.97;61.86;100210.81;10458480;28;20040;-69
2021/09/03 17:41:43;;;;;;;7.45;6.85;;;;;;;19.76;63.00;100214.91;10446680;22;20514;-76
2021/09/03 17:46:44;;;;;;;8.23;7.00;;;;;;;19.59;64.55;100216.84;10383220;28;20046;-77
2021/09/03 17:51:46;;;;;;;7.50;6.88;;;;;;;19.32;65.25;100210.66;10381476;28;20526;-77
2021/09/03 17:56:48;;;;;;;8.32;7.80;;;;;;;19.03;66.44;100210.72;10364183;28;20041;-77
2021/09/03 18:01:49;;;;;;;9.00;8.20;;;;;;;18.89;67.57;100210.75;10366872;28;20046;-77
2021/09/03 18:06:52;;;;;;;9.65;9.00;;;;;;;18.75;68.00;100222.28;10363450;28;20042;-76
2021/09/03 18:11:54;;;;;;;9.30;8.65;;;;;;;18.65;69.01;100226.44;10378937;28;20041;-74
2021/09/03 18:16:55;;;;;;;10.55;9.52;;;;;;;18.57;68.71;100236.72;10378440;28;20053;-74
2021/09/03 18:22:01;;;;;;;10.23;9.52;;;;;;;18.33;69.58;100244.41;10379734;28;20042;-74
2021/09/03 18:27:03;;;;;;;11.82;9.80;;;;;;;18.24;69.86;100244.94;10380345;28;20057;-75
2021/09/03 18:32:04;;;;;;;11.68;10.57;;;;;;;18.12;70.32;100241.22;10382042;28;20038;-75
2021/09/03 18:37:06;;;;;;;10.50;9.75;;;;;;;18.01;70.32;100249.81;10364471;28;20092;-75
2021/09/03 18:42:08;;;;;;;12.73;11.55;;;;;;;17.93;70.63;100252.09;10381041;28;20495;-75
2021/09/03 18:47:10;;;;;;;12.55;11.70;;;;;;;17.79;71.21;100257.34;10363479;28;20049;-74
2021/09/03 18:52:11;;;;;;;12.43;11.45;;;;;;;17.79;71.21;100260.00;10360224;28;20045;-75
2021/09/03 18:57:13;;;;;;;13.38;12.15;;;;;;;17.76;71.36;100263.72;10361687;28;20053;-74
2021/09/03 19:02:15;;;;;;;12.18;11.30;;;;;;;17.69;71.73;100259.66;10381222;28;20081;-75
2021/09/03 19:07:17;;;;;;;12.75;11.85;;;;;;;17.65;71.74;100256.31;10380878;28;20038;-75
2021/09/03 19:12:22;;;;;;;15.13;14.02;;;;;;;17.81;71.31;100258.97;10364401;28;20038;-76
2021/09/03 19:17:26;;;;;;;14.07;13.07;;;;;;;17.51;71.95;100261.56;10363315;28;20050;-76
2021/09/03 19:22:28;;;;;;;14.15;13.18;;;;;;;17.21;73.11;100264.13;10381301;28;20459;-76
2021/09/03 19:27:31;;;;;;;15.30;13.95;;;;;;;17.08;74.06;100257.78;10385504;28;20098;-76
2021/09/03 19:32:32;;;;;;;12.70;11.88;;;;;;;16.93;74.50;100256.84;10369309;28;20060;-76
2021/09/03 19:37:34;;;;;;;13.60;12.70;;;;;;;16.83;74.78;100258.28;10385774;28;20042;-75
2021/09/03 19:42:36;;;;;;;13.90;12.23;;;;;;;16.72;75.21;100269.47;10385353;28;20050;-75
2021/09/03 19:47:38;;;;;;;14.27;13.27;;;;;;;16.67;75.04;100271.47;10368115;28;20044;-75
2021/09/03 19:52:42;;;;;;;13.07;12.07;;;;;;;16.60;75.29;100267.41;10385112;28;20091;-75
2021/09/03 19:57:45;;;;;;;15.60;14.27;;;;;;;16.57;75.99;100270.25;10385825;28;20057;-76
2021/09/03 20:02:47;;;;;;;16.23;15.00;;;;;;;16.59;77.25;100271.88;10385753;28;20573;-75
2021/09/03 20:07:49;;;;;;;16.17;15.05;;;;;;;16.50;77.46;100268.84;10385008;28;20037;-75
2021/09/03 20:12:50;;;;;;;16.23;15.02;;;;;;;16.64;77.48;100269.88;10367339;28;20050;-75
2021/09/03 20:17:52;;;;;;;16.17;14.98;;;;;;;16.65;77.32;100265.41;10366749;28;20085;-75
2021/09/03 20:22:54;;;;;;;16.50;14.88;;;;;;;16.51;77.87;100271.44;10384198;28;20053;-76
2021/09/03 20:27:56;;;;;;;16.15;15.15;;;;;;;16.35;78.51;100263.41;10384385;28;20041;-75
2021/09/03 20:32:59;;;;;;;14.52;13.60;;;;;;;16.09;78.84;100264.75;10366163;28;20515;-75
2021/09/03 20:38:02;;;;;;;14.43;13.32;;;;;;;15.97;79.10;100268.00;10382343;28;20045;-76
2021/09/03 20:43:03;;;;;;;17.90;16.52;;;;;;;16.00;79.79;100262.56;10383703;28;20136;-76
2021/09/03 20:48:05;;;;;;;15.50;14.50;;;;;;;15.86;80.07;100265.06;10382402;28;20057;-74
2021/09/03 20:53:08;;;;;;;17.73;16.30;;;;;;;15.76;80.53;100259.38;10382383;28;20060;-74
2021/09/03 20:58:10;;;;;;;17.73;16.50;;;;;;;15.78;80.28;100261.94;10382626;28;20045;-75
2021/09/03 21:03:11;;;;;;;18.13;16.60;;;;;;;15.93;81.15;100258.50;10363667;28;20053;-75
2021/09/03 21:08:13;;;;;;;18.00;16.63;;;;;;;15.59;80.75;100265.47;10364762;28;20056;-76
2021/09/03 21:13:15;;;;;;;17.38;16.02;;;;;;;15.37;81.90;100259.47;10382234;28;20108;-76
2021/09/03 21:18:16;;;;;;;17.90;16.65;;;;;;;15.27;81.97;100259.06;10382767;28;20034;-76
2021/09/03 21:23:18;;;;;;;18.98;17.58;;;;;;;15.32;82.32;100258.84;10382435;28;20431;-76
2021/09/03 21:28:20;;;;;;;19.55;18.25;;;;;;;15.34;82.36;100260.47;10381690;28;20096;-76
2021/09/03 21:33:21;;;;;;;19.17;17.42;;;;;;;15.22;82.33;100265.50;10382222;28;20447;-74
2021/09/03 21:38:23;;;;;;;17.77;16.50;;;;;;;15.13;82.39;100270.28;10364775;28;20521;-75
2021/09/03 21:43:25;;;;;;;15.38;14.27;;;;;;;15.07;82.21;100264.44;10380463;28;20056;-75
2021/09/03 21:48:26;;;;;;;17.25;15.65;;;;;;;15.06;82.43;100262.72;10364387;28;20403;-75
2021/09/03 21:53:28;;;;;;;17.50;15.93;;;;;;;14.87;82.78;100265.34;10381108;28;20045;-76
2021/09/03 21:58:29;;;;;;;14.30;13.40;;;;;;;14.80;82.38;100261.28;10381117;28;20046;-75
2021/09/03 22:03:31;;;;;;;17.90;15.82;;;;;;;14.99;82.78;100258.63;10363285;28;20045;-76
2021/09/03 22:08:33;;;;;;;16.00;14.85;;;;;;;14.79;83.06;100263.06;10363546;28;20503;-76
2021/09/03 22:13:35;;;;;;;17.13;15.77;;;;;;;15.03;82.47;100263.72;10381152;28;20056;-76
2021/09/03 22:18:36;;;;;;;17.77;16.38;;;;;;;14.77;83.44;100266.69;10363361;28;20056;-75
2021/09/03 22:23:38;;;;;;;17.88;16.75;;;;;;;14.74;83.80;100256.25;10380330;28;20408;-76
2021/09/03 22:28:39;;;;;;;17.52;16.38;;;;;;;14.79;83.60;100259.56;10380161;28;20076;-76
2021/09/03 22:33:42;;;;;;;18.63;17.33;;;;;;;14.43;85.00;100257.56;10362911;28;20050;-75
2021/09/03 22:38:44;;;;;;;18.10;16.88;;;;;;;14.24;85.40;100254.03;10380680;28;20049;-75
2021/09/03 22:43:46;;;;;;;15.57;14.38;;;;;;;14.17;85.65;100260.53;10382188;28;20462;-75
2021/09/03 22:48:48;;;;;;;16.40;15.30;;;;;;;14.10;85.40;100262.56;10347731;28;20160;-75
2021/09/03 22:53:50;;;;;;;16.45;15.30;;;;;;;14.09;85.14;100264.34;10363476;28;20100;-75
2021/09/03 22:58:51;;;;;;;19.15;17.77;;;;;;;14.20;84.94;100261.22;10381476;28;20038;-74